createdAt,value
2022-11-29T00:01:23.418Z,15.80
2022-11-29T00:06:25.048Z,14.75
2022-11-29T00:11:26.544Z,22.02
2022-11-29T00:16:28.084Z,21.25
2022-11-29T00:21:29.604Z,11.15
2022-11-29T00:26:31.088Z,19.52
2022-11-29T00:31:32.579Z,14.45
2022-11-29T00:36:34.079Z,14.32
2022-11-29T00:41:35.562Z,19.15
2022-11-29T00:46:37.016Z,18.92
2022-11-29T00:51:38.507Z,20.17
2022-11-29T00:56:42.084Z,12.07
2022-11-29T01:01:43.609Z,22.55
2022-11-29T01:06:45.155Z,20.15
2022-11-29T01:11:46.607Z,16.17
2022-11-29T01:16:48.182Z,17.88
2022-11-29T01:21:49.736Z,9.30
2022-11-29T01:26:51.219Z,18.42
2022-11-29T01:31:52.680Z,20.45
2022-11-29T01:36:54.156Z,13.63
2022-11-29T01:41:55.674Z,17.92
2022-11-29T01:46:57.153Z,18.23
2022-11-29T01:51:58.600Z,14.80
2022-11-29T01:57:00.102Z,13.63
2022-11-29T02:02:01.590Z,14.02
2022-11-29T02:07:03.070Z,16.92
2022-11-29T02:12:04.542Z,19.48
2022-11-29T02:17:06.024Z,16.30
2022-11-29T02:22:07.526Z,10.38
2022-11-29T02:27:09.018Z,17.48
2022-11-29T02:32:10.487Z,14.90
2022-11-29T02:37:11.999Z,16.88
2022-11-29T02:42:13.529Z,17.77
2022-11-29T02:47:15.024Z,16.35
2022-11-29T02:52:16.509Z,15.32
2022-11-29T02:57:17.960Z,15.20
2022-11-29T03:02:19.498Z,17.67
2022-11-29T03:07:21.060Z,17.55
2022-11-29T03:12:22.557Z,17.20
2022-11-29T03:17:24.079Z,14.13
2022-11-29T03:22:25.599Z,7.55
2022-11-29T03:27:27.124Z,13.75
2022-11-29T03:32:28.628Z,17.15
2022-11-29T03:37:30.126Z,5.97
2022-11-29T03:42:31.627Z,15.38
2022-11-29T03:47:33.131Z,15.07
2022-11-29T03:52:34.648Z,13.70
2022-11-29T03:57:36.108Z,12.23
2022-11-29T04:02:37.621Z,18.55
2022-11-29T04:07:39.172Z,16.60
2022-11-29T04:12:40.709Z,16.23
2022-11-29T04:17:42.170Z,6.30
2022-11-29T04:22:43.674Z,15.63
2022-11-29T04:27:45.150Z,14.60
2022-11-29T04:32:46.634Z,14.40
2022-11-29T04:37:48.169Z,13.55
2022-11-29T04:42:49.655Z,10.93
2022-11-29T04:47:51.114Z,11.18
2022-11-29T04:52:52.586Z,14.05
2022-11-29T04:57:54.085Z,4.30
2022-11-29T05:02:55.654Z,8.90
2022-11-29T05:07:57.188Z,11.77
2022-11-29T05:12:58.673Z,14.32
2022-11-29T05:18:00.160Z,10.25
2022-11-29T05:23:01.656Z,9.32
2022-11-29T05:28:08.472Z,10.85
2022-11-29T05:33:11.464Z,15.43
2022-11-29T05:38:12.917Z,12.50
2022-11-29T05:43:14.389Z,9.02
2022-11-29T05:48:15.846Z,7.70
2022-11-29T05:53:17.333Z,13.30
2022-11-29T05:58:18.837Z,15.32
2022-11-29T06:03:20.327Z,4.50
2022-11-29T06:08:21.787Z,13.63
2022-11-29T06:13:23.243Z,10.32
2022-11-29T06:18:24.732Z,10.30
2022-11-29T06:23:26.227Z,11.00
2022-11-29T06:28:27.690Z,15.75
2022-11-29T06:33:29.162Z,8.40
2022-11-29T06:38:30.618Z,11.32
2022-11-29T06:43:32.081Z,13.85
2022-11-29T06:48:33.552Z,12.27
2022-11-29T06:53:35.011Z,12.30
2022-11-29T06:58:36.604Z,15.70
2022-11-29T07:03:38.137Z,9.32
2022-11-29T07:08:39.632Z,7.68
2022-11-29T07:13:41.180Z,16.30
2022-11-29T07:18:42.678Z,7.32
2022-11-29T07:23:44.225Z,16.50
2022-11-29T07:28:45.750Z,16.35
2022-11-29T07:33:47.235Z,14.80
2022-11-29T07:38:48.717Z,14.75
2022-11-29T07:43:50.214Z,12.32
2022-11-29T07:48:51.659Z,6.30
2022-11-29T07:53:53.145Z,13.70
2022-11-29T07:58:54.675Z,14.02
2022-11-29T08:03:56.195Z,13.13
2022-11-29T08:08:57.689Z,11.55
2022-11-29T08:13:59.169Z,12.55
2022-11-29T08:19:00.661Z,15.10
2022-11-29T08:24:02.133Z,13.13
2022-11-29T08:29:03.641Z,15.63
2022-11-29T08:34:05.143Z,12.52
2022-11-29T08:39:09.527Z,13.55
2022-11-29T08:44:11.312Z,13.77
2022-11-29T08:49:12.796Z,11.90
2022-11-29T08:54:14.269Z,12.40
2022-11-29T08:59:15.769Z,21.13
2022-11-29T09:04:17.255Z,15.88
2022-11-29T09:09:18.754Z,12.40
2022-11-29T09:14:21.288Z,15.52
2022-11-29T09:19:22.750Z,18.33
2022-11-29T09:24:24.211Z,14.15
2022-11-29T09:29:25.692Z,10.85
2022-11-29T09:34:27.183Z,11.60
2022-11-29T09:39:28.671Z,13.82
2022-11-29T09:44:30.130Z,14.20
2022-11-29T09:49:31.628Z,11.15
2022-11-29T09:54:33.109Z,19.87
2022-11-29T09:59:34.589Z,19.83
2022-11-29T10:04:36.057Z,10.88
2022-11-29T10:09:37.560Z,9.13
2022-11-29T10:14:39.077Z,5.80
2022-11-29T10:19:40.569Z,14.10
2022-11-29T10:24:42.160Z,14.88
2022-11-29T10:29:43.784Z,15.18
2022-11-29T10:34:45.553Z,11.95
2022-11-29T10:39:47.152Z,14.38
2022-11-29T10:44:48.619Z,13.38
2022-11-29T10:49:50.096Z,15.18
2022-11-29T10:54:51.540Z,13.82
2022-11-29T10:59:52.981Z,14.98
2022-11-29T11:04:54.449Z,14.65
2022-11-29T11:09:55.950Z,13.30
2022-11-29T11:14:57.488Z,14.93
2022-11-29T11:19:59.042Z,13.98
2022-11-29T11:25:00.589Z,15.43
2022-11-29T11:30:02.097Z,10.25
2022-11-29T11:35:03.619Z,14.45
2022-11-29T11:40:05.137Z,10.43
2022-11-29T11:45:06.629Z,15.07
2022-11-29T11:50:08.124Z,8.55
2022-11-29T11:55:09.594Z,11.85
2022-11-29T12:00:11.074Z,15.38
2022-11-29T12:05:12.545Z,19.80
2022-11-29T12:10:14.002Z,14.48
2022-11-29T12:15:15.506Z,15.95
2022-11-29T12:20:17.013Z,15.38
2022-11-29T12:25:18.509Z,12.60
2022-11-29T12:30:19.995Z,21.37
2022-11-29T12:35:21.496Z,14.52
2022-11-29T12:40:22.990Z,16.75
2022-11-29T12:45:24.512Z,14.93
2022-11-29T12:50:26.020Z,15.18
2022-11-29T12:55:27.509Z,15.10
2022-11-29T13:00:28.968Z,15.68
2022-11-29T13:05:30.446Z,17.45
2022-11-29T13:10:31.902Z,19.90
2022-11-29T13:15:33.397Z,12.32
2022-11-29T13:20:34.886Z,9.00
2022-11-29T13:25:36.373Z,10.82
2022-11-29T13:30:37.869Z,13.27
2022-11-29T13:35:39.335Z,15.37
2022-11-29T13:40:40.815Z,13.57
2022-11-29T13:45:42.270Z,13.80
2022-11-29T13:50:43.791Z,12.85
2022-11-29T13:55:45.292Z,10.00
2022-11-29T14:00:46.784Z,12.57
2022-11-29T14:05:48.269Z,12.93
2022-11-29T14:10:49.757Z,8.35
2022-11-29T14:15:51.276Z,13.10
2022-11-29T14:20:52.781Z,13.65
2022-11-29T14:25:54.226Z,17.73
2022-11-29T14:30:55.843Z,15.63
2022-11-29T14:35:57.368Z,11.52
2022-11-29T14:40:58.867Z,13.65
2022-11-29T14:46:00.341Z,14.82
2022-11-29T14:51:01.846Z,12.13
2022-11-29T14:56:03.317Z,14.00
2022-11-29T15:01:09.979Z,12.77
2022-11-29T15:06:12.282Z,12.95
2022-11-29T15:11:13.802Z,13.93
2022-11-29T15:16:15.482Z,11.52
2022-11-29T15:21:17.020Z,14.30
2022-11-29T15:36:53.118Z,13.70
2022-11-29T15:41:54.676Z,17.30
2022-11-29T15:46:56.172Z,11.10
2022-11-29T15:51:57.730Z,12.88
2022-11-29T15:56:59.227Z,16.00
2022-11-29T16:02:00.821Z,14.52
2022-11-29T16:07:02.355Z,18.67
2022-11-29T16:12:03.842Z,12.27
2022-11-29T16:17:05.308Z,8.95
2022-11-29T16:22:06.807Z,13.98
2022-11-29T16:27:08.306Z,12.10
2022-11-29T16:32:09.867Z,13.85
2022-11-29T16:37:11.388Z,10.45
2022-11-29T16:42:12.892Z,15.63
2022-11-29T16:47:14.453Z,12.48
2022-11-29T16:52:15.958Z,12.93
2022-11-29T16:57:17.459Z,13.25
2022-11-29T17:02:18.970Z,14.20
2022-11-29T17:07:20.548Z,13.18
2022-11-29T17:12:22.067Z,14.85
2022-11-29T17:17:23.594Z,13.75
2022-11-29T17:22:25.115Z,13.80
2022-11-29T17:27:26.665Z,12.52
2022-11-29T17:32:28.130Z,14.57
2022-11-29T17:37:29.592Z,12.52
2022-11-29T17:42:31.057Z,11.27
2022-11-29T17:47:32.563Z,11.80
2022-11-29T17:52:34.105Z,13.05
2022-11-29T17:57:35.640Z,14.07
2022-11-29T18:02:37.233Z,13.77
2022-11-29T18:07:38.768Z,11.85
2022-11-29T18:12:40.269Z,9.35
2022-11-29T18:17:41.751Z,13.55
2022-11-29T18:22:43.251Z,17.30
2022-11-29T18:27:44.776Z,13.63
2022-11-29T18:32:46.299Z,13.77
2022-11-29T18:38:14.230Z,10.30
2022-11-29T18:43:09.361Z,9.43
2022-11-29T18:48:10.853Z,12.45
2022-11-29T18:53:12.361Z,12.82
2022-11-29T18:58:13.886Z,17.50
2022-11-29T19:03:15.370Z,14.63
2022-11-29T19:08:16.862Z,15.18
2022-11-29T19:13:18.369Z,21.40
2022-11-29T19:18:19.895Z,22.25
2022-11-29T19:23:21.375Z,17.92
2022-11-29T19:28:22.906Z,22.27
2022-11-29T19:33:24.424Z,11.43
2022-11-29T19:38:25.929Z,19.45
2022-11-29T19:43:27.429Z,23.88
2022-11-29T19:48:28.934Z,19.35
2022-11-29T19:53:30.484Z,20.45
2022-11-29T19:58:32.028Z,20.30
2022-11-29T20:03:33.577Z,11.77
2022-11-29T20:08:35.101Z,17.33
2022-11-29T20:13:36.638Z,23.02
2022-11-29T20:18:38.160Z,17.33
2022-11-29T20:23:39.674Z,23.05
2022-11-29T20:28:41.185Z,17.10
2022-11-29T20:33:42.697Z,19.52
2022-11-29T20:38:44.187Z,18.70
2022-11-29T20:43:45.714Z,27.05
2022-11-29T20:48:47.246Z,28.77
2022-11-29T20:53:48.743Z,24.23
2022-11-29T20:58:50.247Z,28.35
2022-11-29T21:03:51.799Z,29.92
2022-11-29T21:08:53.332Z,31.90
2022-11-29T21:13:54.853Z,26.67
2022-11-29T21:18:56.405Z,21.30
2022-11-29T21:23:57.889Z,21.42
2022-11-29T21:28:59.360Z,26.80
2022-11-29T21:34:00.837Z,32.45
2022-11-29T21:39:05.151Z,31.83
2022-11-29T21:44:08.064Z,24.02
2022-11-29T21:49:09.920Z,26.67
2022-11-29T21:54:11.424Z,27.35
2022-11-29T21:59:12.944Z,33.72
2022-11-29T22:04:14.525Z,21.38
2022-11-29T22:09:16.047Z,28.95
2022-11-29T22:14:17.586Z,20.85
2022-11-29T22:19:19.126Z,26.10
2022-11-29T22:24:20.636Z,35.95
2022-11-29T22:29:22.160Z,36.17
2022-11-29T22:34:23.686Z,33.95
2022-11-29T22:39:25.216Z,34.05
2022-11-29T22:44:26.726Z,26.25
2022-11-29T22:49:28.222Z,27.30
2022-11-29T22:54:29.735Z,29.73
2022-11-29T22:59:31.245Z,36.90
2022-11-29T23:04:32.796Z,30.05
2022-11-29T23:09:34.270Z,35.47
2022-11-29T23:14:35.790Z,31.83
2022-11-29T23:19:37.327Z,34.70
2022-11-29T23:24:38.853Z,14.73
2022-11-29T23:29:40.338Z,28.40
2022-11-29T23:34:41.859Z,35.53
2022-11-29T23:39:43.368Z,30.48
2022-11-29T23:44:45.210Z,32.78
2022-11-29T23:49:47.004Z,38.28
2022-11-29T23:54:48.744Z,37.65
2022-11-29T23:59:50.371Z,35.42
